Birch Creek GC
600 E Center St, Smithfield
Last Weather Update:4/16/2012 10:00:00 AM
Date
ETo
ETc
Rain
Irrigation
Req
Temp
Max
Temp
Min
Temp
Avg
Avg RH
Avg Wind
Avg Solar
inches
inches
incehs
inches
F
F
F
%
%
watts/m2
3/1/2012 0.04" 0.00" 0.16" -0.13" 31.5° 12.3° 22.8° 99.2% 2.5 MPH 136.6w/m2
3/2/2012 0.05" 0.00" 0.10" -0.08" 29.7° 12.5° 22.6° 74.5% 3.7 MPH 183.2w/m2
3/3/2012 0.04" 0.00" 0.00" 0.00" 35.2° 23.9° 30.7° 65.3% 3.8 MPH 61.2w/m2
3/4/2012 0.09" 0.00" 0.00" 0.00" 50.1° 32.0° 39.7° 61.6% 3.5 MPH 196.0w/m2
3/5/2012 0.12" 0.00" 0.00" 0.00" 58.6° 26.0° 43.6° 31.0% 4.6 MPH 209.6w/m2
3/6/2012 0.05" 0.00" 0.00" 0.00" 53.9° 23.3° 39.0° 98.4% 8.3 MPH 61.4w/m2
3/7/2012 0.08" 0.00" 0.10" -0.08" 35.5° 22.1° 27.5° 69.4% 6.0 MPH 205.9w/m2
3/8/2012 0.08" 0.00" 0.00" 0.00" 46.4° 18.7° 31.5° 66.3% 3.7 MPH 223.2w/m2
3/9/2012 0.10" 0.00" 0.00" 0.00" 53.7° 24.4° 37.3° 52.1% 3.3 MPH 223.8w/m2
3/10/2012 0.11" 0.00" 0.00" 0.00" 56.3° 26.2° 40.2° 53.0% 3.7 MPH 226.3w/m2
3/11/2012 0.13" 0.00" 0.00" 0.00" 58.2° 29.3° 44.1° 63.0% 5.2 MPH 210.2w/m2
3/12/2012 0.15" 0.00" 0.00" 0.00" 59.8° 35.3° 49.7° 23.5% 7.2 MPH 223.0w/m2
3/13/2012 0.18" 0.00" 0.00" 0.00" 58.7° 50.0° 54.7° 33.3% 12.0 MPH 107.7w/m2
3/14/2012 0.13" 0.00" 0.00" 0.00" 57.9° 46.9° 51.8° 56.3% 7.2 MPH 107.1w/m2
3/15/2012 0.14" 0.00" 0.00" 0.00" 63.7° 38.3° 51.8° 46.9% 5.4 MPH 188.1w/m2
3/16/2012 0.11" 0.00" 0.00" 0.00" 60.7° 44.6° 53.6° 51.6% 7.2 MPH 89.4w/m2
3/17/2012 0.17" 0.00" 0.00" 0.00" 63.0° 44.3° 54.1° 74.0% 13.7 MPH 110.6w/m2
3/18/2012 0.06" 0.00" 0.21" -0.17" 45.2° 29.7° 38.3° 98.0% 7.3 MPH 87.3w/m2
3/19/2012 0.07" 0.00" 0.13" -0.10" 38.7° 23.8° 30.2° 72.2% 2.9 MPH 174.3w/m2
3/20/2012 0.10" 0.00" 0.00" 0.00" 42.0° 21.0° 32.2° 61.8% 4.8 MPH 240.9w/m2
3/21/2012 0.13" 0.00" 0.00" 0.00" 58.5° 33.4° 45.0° 57.9% 3.8 MPH 235.2w/m2
3/22/2012 0.15" 0.00" 0.00" 0.00" 68.0° 33.1° 50.0° 40.5% 3.6 MPH 245.5w/m2
3/23/2012 0.20" 0.00" 0.00" 0.00" 66.6° 46.5° 56.8° 52.8% 7.6 MPH 214.0w/m2
3/24/2012 0.15" 0.00" 0.00" 0.00" 68.2° 36.9° 52.3° 38.2% 4.0 MPH 210.9w/m2
3/25/2012 0.12" 0.00" 0.00" 0.00" 66.6° 42.9° 55.1° 41.3% 3.7 MPH 149.0w/m2
3/26/2012 0.07" 0.00" 0.12" -0.10" 55.2° 32.8° 43.0° 81.1% 7.4 MPH 82.2w/m2
3/27/2012 0.13" 0.00" 0.00" 0.00" 59.2° 31.8° 44.3° 53.9% 3.4 MPH 244.7w/m2
3/28/2012 0.12" 0.00" 0.27" -0.22" 57.2° 35.5° 47.8° 95.7% 6.4 MPH 132.9w/m2
3/29/2012 0.08" 0.00" 0.01" -0.01" 53.0° 30.9° 42.3° 65.5% 4.0 MPH 162.9w/m2
3/30/2012 0.12" 0.00" 0.00" 0.00" 64.0° 42.6° 53.2° 58.4% 4.0 MPH 186.4w/m2
3/31/2012 0.27" 0.00" 0.00" 0.00" 73.1° 45.9° 61.2° 21.9% 11.4 MPH 273.4w/m2
Totals: 3.54" 0.00" 1.10" -0.88" 73.1° 12.3° 43.4° 60.0% 5.7 MPH 174.3w/m2